createdAt,value
2024-01-08T00:00:43.979Z,4.22
2024-01-08T00:03:11.272Z,4.23
2024-01-08T00:05:41.956Z,4.18
2024-01-08T00:08:09.630Z,4.17
2024-01-08T00:10:39.831Z,4.19
2024-01-08T00:13:07.306Z,4.17
2024-01-08T00:15:34.503Z,4.16
2024-01-08T00:18:01.984Z,4.15
2024-01-08T00:20:29.234Z,4.11
2024-01-08T00:22:56.408Z,4.07
2024-01-08T00:25:23.612Z,4.07
2024-01-08T00:27:51.584Z,4.06
2024-01-08T00:30:19.342Z,4.05
2024-01-08T00:32:46.886Z,4.04
2024-01-08T00:35:14.819Z,4.06
2024-01-08T00:37:44.983Z,4.03
2024-01-08T00:40:12.313Z,4.06
2024-01-08T00:42:40.767Z,4.04
2024-01-08T00:45:08.786Z,4.05
2024-01-08T00:47:35.886Z,4.00
2024-01-08T00:50:03.609Z,3.99
2024-01-08T00:52:30.851Z,3.95
2024-01-08T00:55:03.044Z,3.92
2024-01-08T00:57:30.148Z,3.92
2024-01-08T00:59:56.830Z,3.93
2024-01-08T01:02:23.747Z,3.92
2024-01-08T01:04:51.035Z,3.94
2024-01-08T01:07:18.426Z,3.95
2024-01-08T01:09:45.001Z,3.93
2024-01-08T01:12:12.325Z,3.88
2024-01-08T01:14:39.241Z,3.82
2024-01-08T01:17:06.147Z,3.81
2024-01-08T01:19:33.076Z,3.83
2024-01-08T01:22:00.294Z,3.83
2024-01-08T01:24:27.072Z,3.84
2024-01-08T01:26:53.794Z,3.83
2024-01-08T01:29:20.555Z,3.83
2024-01-08T01:31:47.312Z,3.79
2024-01-08T01:34:14.231Z,3.81
2024-01-08T01:36:41.214Z,3.83
2024-01-08T01:39:08.654Z,3.81
2024-01-08T01:41:35.584Z,3.80
2024-01-08T01:44:02.556Z,3.78
2024-01-08T01:46:46.942Z,3.75
2024-01-08T01:49:16.509Z,3.71
2024-01-08T01:51:45.220Z,3.65
2024-01-08T01:54:21.677Z,3.58
2024-01-08T01:56:52.508Z,3.57
2024-01-08T01:59:20.041Z,3.59
2024-01-08T02:01:47.196Z,3.60
2024-01-08T02:04:16.433Z,3.60
2024-01-08T02:06:45.314Z,3.60
2024-01-08T02:09:14.996Z,3.58
2024-01-08T02:11:41.921Z,3.53
2024-01-08T02:14:18.997Z,3.35
2024-01-08T02:16:45.808Z,3.55
2024-01-08T02:19:13.401Z,3.58
2024-01-08T02:21:40.268Z,3.58
2024-01-08T02:24:07.603Z,3.54
2024-01-08T02:26:35.770Z,3.52
2024-01-08T02:29:03.263Z,3.50
2024-01-08T02:31:30.985Z,3.49
2024-01-08T02:33:58.020Z,3.51
2024-01-08T02:36:24.722Z,3.49
2024-01-08T02:38:51.455Z,3.46
2024-01-08T02:41:18.364Z,3.43
2024-01-08T02:43:45.218Z,3.37
2024-01-08T02:46:12.125Z,3.33
2024-01-08T02:48:38.943Z,3.31
2024-01-08T02:51:05.900Z,3.29
2024-01-08T02:53:33.051Z,3.29
2024-01-08T02:55:59.801Z,3.26
2024-01-08T02:58:26.930Z,3.22
2024-01-08T03:00:53.988Z,3.19
2024-01-08T03:03:20.736Z,3.19
2024-01-08T03:05:47.425Z,3.22
2024-01-08T03:08:14.356Z,3.24
2024-01-08T03:10:41.127Z,3.21
2024-01-08T03:13:08.292Z,3.17
2024-01-08T03:15:34.934Z,3.10
2024-01-08T03:18:01.789Z,3.12
2024-01-08T03:20:28.831Z,3.15
2024-01-08T03:22:55.667Z,3.15
2024-01-08T03:25:22.440Z,3.15
2024-01-08T03:27:49.270Z,3.11
2024-01-08T03:30:16.833Z,3.04
2024-01-08T03:32:44.098Z,3.01
2024-01-08T03:35:11.977Z,2.99
2024-01-08T03:37:39.748Z,2.97
2024-01-08T03:40:07.781Z,2.95
2024-01-08T03:42:34.763Z,2.96
2024-01-08T03:45:01.471Z,2.94
2024-01-08T03:47:28.278Z,2.93
2024-01-08T03:49:56.796Z,2.94
2024-01-08T03:52:26.462Z,2.93
2024-01-08T03:54:53.191Z,2.92
2024-01-08T03:57:19.901Z,2.88
2024-01-08T03:59:47.649Z,2.87
2024-01-08T04:02:15.509Z,2.89
2024-01-08T04:04:43.562Z,2.85
2024-01-08T04:07:12.003Z,2.83
2024-01-08T04:09:41.030Z,2.87
2024-01-08T04:12:08.524Z,2.87
2024-01-08T04:14:37.456Z,2.90
2024-01-08T04:17:06.951Z,2.91
2024-01-08T04:19:33.835Z,2.93
2024-01-08T04:22:00.852Z,2.95
2024-01-08T04:24:27.747Z,2.92
2024-01-08T04:26:54.522Z,2.92
2024-01-08T04:29:21.358Z,2.91
2024-01-08T04:31:48.281Z,2.87
2024-01-08T04:34:15.096Z,2.87
2024-01-08T04:36:45.933Z,2.90
2024-01-08T04:39:12.980Z,2.93
2024-01-08T04:41:41.370Z,2.89
2024-01-08T04:44:10.921Z,2.87
2024-01-08T04:46:38.035Z,2.85
2024-01-08T04:49:05.931Z,2.86
2024-01-08T04:51:34.664Z,2.84
2024-01-08T04:54:02.055Z,2.82
2024-01-08T04:56:31.705Z,2.85
2024-01-08T04:58:58.594Z,2.83
2024-01-08T05:01:26.289Z,2.82
2024-01-08T05:03:53.297Z,2.81
2024-01-08T05:06:20.593Z,2.78
2024-01-08T05:08:47.842Z,2.79
2024-01-08T05:11:15.273Z,2.81
2024-01-08T05:13:42.666Z,2.80
2024-01-08T05:16:10.290Z,2.78
2024-01-08T05:18:37.824Z,2.72
2024-01-08T05:21:09.274Z,2.68
2024-01-08T05:23:36.035Z,2.69
2024-01-08T05:26:02.924Z,2.65
2024-01-08T05:28:30.407Z,2.63
2024-01-08T05:30:57.878Z,2.63
2024-01-08T05:33:26.632Z,2.61
2024-01-08T05:35:53.727Z,2.60
2024-01-08T05:38:20.736Z,2.59
2024-01-08T05:40:48.032Z,2.60
2024-01-08T05:43:14.965Z,2.57
2024-01-08T05:45:42.510Z,2.51
2024-01-08T05:48:13.214Z,2.47
2024-01-08T05:50:40.904Z,2.48
2024-01-08T05:53:07.745Z,2.55
2024-01-08T05:55:34.650Z,2.59
2024-01-08T05:58:01.552Z,2.61
2024-01-08T06:00:28.483Z,2.58
2024-01-08T06:02:55.203Z,2.57
2024-01-08T06:05:21.878Z,2.55
2024-01-08T06:07:50.212Z,2.47
2024-01-08T06:10:17.077Z,2.44
2024-01-08T06:12:43.830Z,2.44
2024-01-08T06:15:11.913Z,2.38
2024-01-08T06:17:41.022Z,2.31
2024-01-08T06:20:10.556Z,2.28
2024-01-08T06:22:37.475Z,2.26
2024-01-08T06:25:05.673Z,2.28
2024-01-08T06:27:33.258Z,2.24
2024-01-08T06:30:00.844Z,2.22
2024-01-08T06:32:27.950Z,2.15
2024-01-08T06:34:55.135Z,2.11
2024-01-08T06:37:22.098Z,2.04
2024-01-08T06:39:49.068Z,1.95
2024-01-08T06:42:15.919Z,1.90
2024-01-08T06:44:42.652Z,1.89
2024-01-08T06:47:09.745Z,1.86
2024-01-08T06:49:36.646Z,1.85
2024-01-08T06:52:03.435Z,1.83
2024-01-08T06:54:30.223Z,1.81
2024-01-08T06:56:57.135Z,1.77
2024-01-08T06:59:24.068Z,1.72
2024-01-08T07:01:53.378Z,1.69
2024-01-08T07:04:20.675Z,1.68
2024-01-08T07:06:47.464Z,1.66
2024-01-08T07:09:14.449Z,1.64
2024-01-08T07:11:41.225Z,1.65
2024-01-08T07:14:08.206Z,1.68
2024-01-08T07:16:34.949Z,1.70
2024-01-08T07:19:02.076Z,1.66
2024-01-08T07:21:29.288Z,1.71
2024-01-08T07:23:56.040Z,1.73
2024-01-08T07:26:22.834Z,1.70
2024-01-08T07:28:50.280Z,1.70
2024-01-08T07:31:17.470Z,1.70
2024-01-08T07:33:44.698Z,1.70
2024-01-08T07:36:11.556Z,1.68
2024-01-08T07:38:38.768Z,1.69
2024-01-08T07:41:08.809Z,1.70
2024-01-08T07:43:39.149Z,1.69
2024-01-08T07:46:06.097Z,1.67
2024-01-08T07:48:33.206Z,1.73
2024-01-08T07:51:01.568Z,1.73
2024-01-08T07:53:28.377Z,1.73
2024-01-08T07:55:55.226Z,1.78
2024-01-08T07:58:28.412Z,1.82
2024-01-08T08:01:03.772Z,1.85
2024-01-08T08:03:31.089Z,1.85
2024-01-08T08:05:59.854Z,1.83
2024-01-08T08:08:27.240Z,1.82
2024-01-08T08:10:54.035Z,1.81
2024-01-08T08:13:20.968Z,1.82
2024-01-08T08:15:47.620Z,1.82
2024-01-08T08:18:14.513Z,1.80
2024-01-08T08:20:41.587Z,1.74
2024-01-08T08:23:08.526Z,1.74
2024-01-08T08:25:35.326Z,1.72
2024-01-08T08:28:02.082Z,1.66
2024-01-08T08:30:28.963Z,1.66
2024-01-08T08:32:59.976Z,1.62
2024-01-08T08:35:27.049Z,1.62
2024-01-08T08:37:55.006Z,1.60
2024-01-08T08:40:23.633Z,1.59
2024-01-08T08:42:51.116Z,1.60
2024-01-08T08:45:19.397Z,1.64
2024-01-08T08:47:46.594Z,1.69
2024-01-08T08:50:14.084Z,1.70
2024-01-08T08:52:41.138Z,1.72
2024-01-08T08:55:11.207Z,1.73
2024-01-08T08:57:38.550Z,1.77
2024-01-08T09:00:08.491Z,1.83
2024-01-08T09:02:35.483Z,1.86
2024-01-08T09:05:02.754Z,1.86
2024-01-08T09:07:29.759Z,1.86
2024-01-08T09:09:56.554Z,1.88
2024-01-08T09:12:23.328Z,1.92
2024-01-08T09:14:50.265Z,1.91
2024-01-08T09:17:17.081Z,1.87
2024-01-08T09:19:45.235Z,1.85
2024-01-08T09:22:13.271Z,1.83
2024-01-08T09:24:39.899Z,1.86
2024-01-08T09:27:07.348Z,1.87
2024-01-08T09:29:34.187Z,1.84
2024-01-08T09:32:00.941Z,1.83
2024-01-08T09:34:27.811Z,1.85
2024-01-08T09:36:56.947Z,1.87
2024-01-08T09:39:43.943Z,1.86
2024-01-08T09:42:34.319Z,1.83
2024-01-08T09:45:24.498Z,1.87
2024-01-08T09:47:52.464Z,1.90
2024-01-08T09:50:20.757Z,1.89
2024-01-08T09:52:48.358Z,1.88
2024-01-08T09:55:16.130Z,1.89
2024-01-08T09:57:42.936Z,1.88
2024-01-08T10:00:11.476Z,1.90
2024-01-08T10:02:39.313Z,1.90
2024-01-08T10:05:08.796Z,1.92
2024-01-08T10:07:36.600Z,1.94
2024-01-08T10:10:06.476Z,1.92
2024-01-08T10:12:33.905Z,1.98
2024-01-08T10:15:02.921Z,2.02
2024-01-08T10:17:31.810Z,2.07
2024-01-08T10:20:12.531Z,2.06
2024-01-08T10:22:39.656Z,2.04
2024-01-08T10:25:07.422Z,1.99
2024-01-08T10:27:35.126Z,1.94
2024-01-08T10:30:04.313Z,1.95
2024-01-08T10:32:31.648Z,1.91
2024-01-08T10:34:58.947Z,1.86
2024-01-08T10:37:27.281Z,1.79
2024-01-08T10:39:57.021Z,1.74
2024-01-08T10:42:25.265Z,1.76
2024-01-08T10:44:52.289Z,1.79
2024-01-08T10:47:27.842Z,1.81
2024-01-08T10:49:58.711Z,1.82
2024-01-08T10:52:33.615Z,1.78
2024-01-08T10:55:03.281Z,1.78
2024-01-08T10:57:44.914Z,1.78
2024-01-08T11:00:14.155Z,1.78
2024-01-08T11:02:42.456Z,1.92
2024-01-08T11:05:10.191Z,1.94
2024-01-08T11:07:40.058Z,1.92
2024-01-08T11:10:08.270Z,1.94
2024-01-08T11:12:41.488Z,1.99
2024-01-08T11:15:10.011Z,1.96
2024-01-08T11:17:36.908Z,1.92
2024-01-08T11:20:08.431Z,1.87
2024-01-08T11:22:39.026Z,1.81
2024-01-08T11:25:07.204Z,1.79
2024-01-08T11:27:34.283Z,1.82
2024-01-08T11:30:05.581Z,1.85
2024-01-08T11:32:33.451Z,1.86
2024-01-08T11:35:11.178Z,1.87
2024-01-08T11:37:43.718Z,1.89
2024-01-08T11:40:18.696Z,1.90
2024-01-08T11:42:46.827Z,1.92
2024-01-08T11:45:14.038Z,1.91
2024-01-08T11:47:41.111Z,1.81
2024-01-08T11:50:08.890Z,1.74
2024-01-08T11:52:39.395Z,1.73
2024-01-08T11:55:10.563Z,1.79
2024-01-08T11:57:38.229Z,1.81
2024-01-08T12:00:15.499Z,1.80
2024-01-08T12:02:42.529Z,1.81
2024-01-08T12:05:10.454Z,1.81
2024-01-08T12:07:39.414Z,1.81
2024-01-08T12:10:09.046Z,1.77
2024-01-08T12:12:37.222Z,1.81
2024-01-08T12:15:05.761Z,1.85
2024-01-08T12:17:33.394Z,1.85
2024-01-08T12:20:00.429Z,1.84
2024-01-08T12:22:27.642Z,1.83
2024-01-08T12:24:56.574Z,1.84
2024-01-08T12:27:26.710Z,1.88
2024-01-08T12:29:56.300Z,1.92
2024-01-08T12:32:24.989Z,1.94
2024-01-08T12:34:52.460Z,1.95
2024-01-08T12:37:22.439Z,1.99
2024-01-08T12:39:49.183Z,2.04
2024-01-08T12:42:20.241Z,2.08
2024-01-08T12:44:51.230Z,2.14
2024-01-08T12:47:18.158Z,2.16
2024-01-08T12:49:45.170Z,2.18
2024-01-08T12:52:13.872Z,2.19
2024-01-08T12:54:42.946Z,2.16
2024-01-08T12:57:12.558Z,2.11
2024-01-08T12:59:52.188Z,2.09
2024-01-08T13:02:19.851Z,2.08
2024-01-08T13:04:47.269Z,2.10
2024-01-08T13:07:14.433Z,2.13
2024-01-08T13:09:41.170Z,2.10
2024-01-08T13:12:10.250Z,2.07
2024-01-08T13:14:37.113Z,2.07
2024-01-08T13:17:04.576Z,2.03
2024-01-08T13:19:34.387Z,2.01
2024-01-08T13:22:03.340Z,1.95
2024-01-08T13:24:30.133Z,1.91
2024-01-08T13:26:56.919Z,1.87
2024-01-08T13:29:23.751Z,1.88
2024-01-08T13:31:50.554Z,1.93
2024-01-08T13:34:17.378Z,1.97
2024-01-08T13:36:44.225Z,1.98
2024-01-08T13:39:11.767Z,1.97
2024-01-08T13:41:40.091Z,1.93
2024-01-08T13:44:07.858Z,1.89
2024-01-08T13:46:35.622Z,1.86
2024-01-08T13:49:03.058Z,1.90
2024-01-08T13:51:29.976Z,1.91
2024-01-08T13:53:56.765Z,1.91
2024-01-08T13:56:23.618Z,1.90
2024-01-08T13:58:51.448Z,1.88
2024-01-08T14:01:18.741Z,1.89
2024-01-08T14:03:45.987Z,1.93
2024-01-08T14:06:14.398Z,1.94
2024-01-08T14:08:41.790Z,1.96
2024-01-08T14:11:09.235Z,1.95
2024-01-08T14:13:36.071Z,1.99
2024-01-08T14:16:03.758Z,1.97
2024-01-08T14:18:31.707Z,1.93
2024-01-08T14:20:58.917Z,1.94
2024-01-08T14:23:26.192Z,1.99
2024-01-08T14:25:53.961Z,2.05
2024-01-08T14:28:20.909Z,2.07
2024-01-08T14:30:47.638Z,2.08
2024-01-08T14:33:14.595Z,2.07
2024-01-08T14:35:41.442Z,2.03
2024-01-08T14:38:08.297Z,1.98
2024-01-08T14:40:37.775Z,1.95
2024-01-08T14:43:09.979Z,1.95
2024-01-08T14:45:37.352Z,1.91
2024-01-08T14:48:04.886Z,1.90
2024-01-08T14:50:31.986Z,1.90
2024-01-08T14:52:58.764Z,1.88
2024-01-08T14:55:25.985Z,1.86
2024-01-08T14:57:52.792Z,1.87
2024-01-08T15:00:19.789Z,1.90
2024-01-08T15:02:47.000Z,1.87
2024-01-08T15:05:14.210Z,1.85
2024-01-08T15:07:40.983Z,1.86
2024-01-08T15:10:09.414Z,1.87
2024-01-08T15:12:36.718Z,1.91
2024-01-08T15:15:06.303Z,1.91
2024-01-08T15:17:33.357Z,1.90
2024-01-08T15:20:00.655Z,1.92
2024-01-08T15:22:28.119Z,1.98
2024-01-08T15:24:57.612Z,1.98
2024-01-08T15:27:25.782Z,1.97
2024-01-08T15:29:55.917Z,1.93
2024-01-08T15:32:25.010Z,1.92
2024-01-08T15:34:52.661Z,1.94
2024-01-08T15:37:19.708Z,1.99
2024-01-08T15:39:46.440Z,2.03
2024-01-08T15:42:13.435Z,2.05
2024-01-08T15:44:40.339Z,2.09
2024-01-08T15:47:07.328Z,2.11
2024-01-08T15:49:34.220Z,2.09
2024-01-08T15:52:01.737Z,2.09
2024-01-08T15:54:28.533Z,2.08
2024-01-08T15:56:55.412Z,2.10
2024-01-08T15:59:22.457Z,2.14
2024-01-08T16:01:49.631Z,2.11
2024-01-08T16:04:17.430Z,2.08
2024-01-08T16:06:47.187Z,2.10
2024-01-08T16:09:16.179Z,2.13
2024-01-08T16:11:43.421Z,2.15
2024-01-08T16:14:10.637Z,2.13
2024-01-08T16:16:37.366Z,2.14
2024-01-08T16:19:04.474Z,2.10
2024-01-08T16:21:31.688Z,2.06
2024-01-08T16:24:06.246Z,2.04
2024-01-08T16:26:37.641Z,2.02
2024-01-08T16:29:04.756Z,1.99
2024-01-08T16:31:31.701Z,1.99
2024-01-08T16:33:58.456Z,1.95
2024-01-08T16:36:25.763Z,1.91
2024-01-08T16:38:52.725Z,1.90
2024-01-08T16:41:19.643Z,1.90
2024-01-08T16:43:48.798Z,1.94
2024-01-08T16:46:15.682Z,1.95
2024-01-08T16:48:42.707Z,1.94
2024-01-08T16:51:11.729Z,1.94
2024-01-08T16:53:38.981Z,1.96
2024-01-08T16:56:05.884Z,1.93
2024-01-08T16:58:32.610Z,1.92
2024-01-08T17:00:59.574Z,1.93
2024-01-08T17:03:26.500Z,1.93
2024-01-08T17:05:55.580Z,1.93
2024-01-08T17:08:23.318Z,1.93
2024-01-08T17:10:50.204Z,1.92
2024-01-08T17:13:16.925Z,1.95
2024-01-08T17:15:44.620Z,2.00
2024-01-08T17:18:11.692Z,1.99
2024-01-08T17:20:38.662Z,2.00
2024-01-08T17:23:05.590Z,1.99
2024-01-08T17:25:32.595Z,1.99
2024-01-08T17:27:59.436Z,1.98
2024-01-08T17:30:26.223Z,1.95
2024-01-08T17:32:53.533Z,1.92
2024-01-08T17:35:20.279Z,1.86
2024-01-08T17:37:46.991Z,1.88
2024-01-08T17:40:15.780Z,1.87
2024-01-08T17:42:42.585Z,1.90
2024-01-08T17:45:09.768Z,1.88
2024-01-08T17:47:37.175Z,1.85
2024-01-08T17:50:04.730Z,1.84
2024-01-08T17:52:33.078Z,1.85
2024-01-08T17:55:00.514Z,1.89
2024-01-08T17:57:27.419Z,1.91
2024-01-08T17:59:54.366Z,1.97
2024-01-08T18:02:21.272Z,1.99
2024-01-08T18:04:48.526Z,2.01
2024-01-08T18:07:15.911Z,2.02
2024-01-08T18:09:43.161Z,1.99
2024-01-08T18:12:10.399Z,1.94
2024-01-08T18:14:37.281Z,1.92
2024-01-08T18:17:05.282Z,1.88
2024-01-08T18:19:32.628Z,1.91
2024-01-08T18:21:59.774Z,1.90
2024-01-08T18:24:31.880Z,1.90
2024-01-08T18:27:01.717Z,1.89
2024-01-08T18:29:28.917Z,1.91
2024-01-08T18:31:55.900Z,1.92
2024-01-08T18:34:22.779Z,1.93
2024-01-08T18:36:49.726Z,1.94
2024-01-08T18:39:20.511Z,2.00
2024-01-08T18:41:49.479Z,2.00
2024-01-08T18:44:18.427Z,2.00
2024-01-08T18:46:45.514Z,2.01
2024-01-08T18:49:12.607Z,2.01
2024-01-08T18:51:39.249Z,1.98
2024-01-08T18:54:06.194Z,1.94
2024-01-08T18:56:33.190Z,1.94
2024-01-08T18:59:00.309Z,1.90
2024-01-08T19:01:28.268Z,1.91
2024-01-08T19:03:56.284Z,1.88
2024-01-08T19:06:27.022Z,1.88
2024-01-08T19:08:54.239Z,1.88
2024-01-08T19:11:21.352Z,1.89
2024-01-08T19:13:48.273Z,1.90
2024-01-08T19:16:20.335Z,1.90
2024-01-08T19:18:47.854Z,1.89
2024-01-08T19:21:15.315Z,1.90
2024-01-08T19:23:42.402Z,1.97
2024-01-08T19:26:10.784Z,2.00
2024-01-08T19:28:39.819Z,2.02
2024-01-08T19:31:09.208Z,2.04
2024-01-08T19:33:36.309Z,2.01
2024-01-08T19:36:03.601Z,1.95
2024-01-08T19:38:30.387Z,1.93
2024-01-08T19:40:58.296Z,1.94
2024-01-08T19:43:26.106Z,1.92
2024-01-08T19:45:52.839Z,1.92
2024-01-08T19:48:20.153Z,1.92
2024-01-08T19:50:47.222Z,1.91
2024-01-08T19:53:14.072Z,1.90
2024-01-08T19:55:40.911Z,1.90
2024-01-08T19:58:07.878Z,1.91
2024-01-08T20:00:34.913Z,1.91
2024-01-08T20:03:02.033Z,1.91
2024-01-08T20:05:31.093Z,1.94
2024-01-08T20:07:58.157Z,2.00
2024-01-08T20:10:26.259Z,2.03
2024-01-08T20:12:53.180Z,2.02
2024-01-08T20:15:20.109Z,2.03
2024-01-08T20:17:48.077Z,2.04
2024-01-08T20:20:16.865Z,2.07
2024-01-08T20:22:43.869Z,2.09
2024-01-08T20:25:10.787Z,2.10
2024-01-08T20:27:37.540Z,2.11
2024-01-08T20:30:05.287Z,2.12
2024-01-08T20:32:32.279Z,2.14
2024-01-08T20:34:59.180Z,2.15
2024-01-08T20:37:26.803Z,2.13
2024-01-08T20:39:53.705Z,2.13
2024-01-08T20:42:20.495Z,2.12
2024-01-08T20:44:47.260Z,2.09
2024-01-08T20:47:14.446Z,2.08
2024-01-08T20:49:41.605Z,2.10
2024-01-08T20:52:08.793Z,2.11
2024-01-08T20:54:35.525Z,2.08
2024-01-08T20:57:05.333Z,2.08
2024-01-08T20:59:39.593Z,2.10
2024-01-08T21:02:07.178Z,2.09
2024-01-08T21:04:34.151Z,2.09
2024-01-08T21:07:01.127Z,2.04
2024-01-08T21:09:28.097Z,2.02
2024-01-08T21:11:54.913Z,2.04
2024-01-08T21:14:21.803Z,2.02
2024-01-08T21:16:48.739Z,2.05
2024-01-08T21:19:15.513Z,2.06
2024-01-08T21:21:43.108Z,2.05
2024-01-08T21:24:10.088Z,2.01
2024-01-08T21:26:37.927Z,1.98
2024-01-08T21:29:04.888Z,2.00
2024-01-08T21:31:31.735Z,2.00
2024-01-08T21:33:58.559Z,2.00
2024-01-08T21:36:26.110Z,2.03
2024-01-08T21:38:52.970Z,2.04
2024-01-08T21:41:20.318Z,2.00
2024-01-08T21:43:47.309Z,2.00
2024-01-08T21:46:14.688Z,2.01
2024-01-08T21:48:45.474Z,2.05
2024-01-08T21:51:13.320Z,2.08
2024-01-08T21:53:40.702Z,2.04
2024-01-08T21:56:08.410Z,2.04
2024-01-08T21:58:35.259Z,2.01
2024-01-08T22:01:02.108Z,1.98
2024-01-08T22:03:28.944Z,1.93
2024-01-08T22:05:55.999Z,1.93
2024-01-08T22:08:23.703Z,1.98
2024-01-08T22:10:50.857Z,2.00
2024-01-08T22:13:17.580Z,1.99
2024-01-08T22:15:45.954Z,1.93
2024-01-08T22:18:14.137Z,1.91
2024-01-08T22:20:41.408Z,1.89
2024-01-08T22:23:08.966Z,1.88
2024-01-08T22:25:37.823Z,1.89
2024-01-08T22:28:05.077Z,1.92
2024-01-08T22:30:32.445Z,1.93
2024-01-08T22:32:59.344Z,1.96
2024-01-08T22:35:27.143Z,1.95
2024-01-08T22:37:53.827Z,1.96
2024-01-08T22:40:20.563Z,1.92
2024-01-08T22:42:47.324Z,1.95
2024-01-08T22:45:14.262Z,1.99
2024-01-08T22:47:43.641Z,1.99
2024-01-08T22:50:11.367Z,1.99
2024-01-08T22:52:38.353Z,1.95
2024-01-08T22:55:05.723Z,1.95
2024-01-08T22:57:32.345Z,1.92
2024-01-08T23:00:00.863Z,1.87
2024-01-08T23:02:27.684Z,1.86
2024-01-08T23:04:54.474Z,1.83
2024-01-08T23:07:21.429Z,1.77
2024-01-08T23:09:48.153Z,1.75
2024-01-08T23:12:14.794Z,1.77
2024-01-08T23:14:41.727Z,1.77
2024-01-08T23:17:08.567Z,1.82
2024-01-08T23:19:35.600Z,1.88
2024-01-08T23:22:02.327Z,1.89
2024-01-08T23:24:30.240Z,1.91
2024-01-08T23:27:01.592Z,1.95
2024-01-08T23:29:28.288Z,2.02
2024-01-08T23:31:55.046Z,2.07
2024-01-08T23:34:22.388Z,2.07
2024-01-08T23:36:50.437Z,2.05
2024-01-08T23:39:17.362Z,2.06
2024-01-08T23:41:44.642Z,2.06
2024-01-08T23:44:14.046Z,2.06
2024-01-08T23:46:41.825Z,2.10
2024-01-08T23:49:08.652Z,2.09
2024-01-08T23:51:35.622Z,2.11
2024-01-08T23:54:02.463Z,2.09
2024-01-08T23:56:29.193Z,2.08
2024-01-08T23:58:56.028Z,2.03
